Airfield :
LOGIN :

Register | Disclaimer

   EN    FR    IT 

 










Legend :    VFR   Marginal VFR   IFR   Intensive IFR   Very Intensive IFR
Visi :
Ceiling :
>= 8 km
>= 3000ft
5 to 8 km
1000 to 3000 ft
1500m to 5 km
500 to 1000 ft
800 to 1500m
200 to 500 ft
< 800m
< 200 ft
Symbols :   Thunderstorms  Fog  Heavy snow  Heavy precipitations  Wind > 20 kt
SIGMETs :     Misc.  Thunderstorms  Icing  Turbulence  Mountain Waves  Volcanic Ashes







- Airport Elevation : 1302 ft
- IATA code : GNB
- Download approach charts


LFLS - Grenoble / St. Geoirs

CURRENT METAR :
  • 200530Z AUTO 01006KT 9999 OVC010/// 09/07 Q1023 TEMPO 0400 FG VV///

EXPIRED METARs :
  • 200500Z AUTO 01004KT 340V050 9999 BKN010 OVC014 09/07 Q1022 TEMPO 0400 FG VV///
  • 200430Z AUTO 36003KT 340V080 9999 OVC011 09/07 Q1022 TEMPO 0400 FG VV///
  • 200400Z AUTO 35005KT 310V060 9999 OVC011 09/08 Q1022 TEMPO 0400 FG VV///
  • 200330Z AUTO VRB02KT 9999 BKN012 09/07 Q1022 TEMPO 0400 FG VV///
  • 200300Z AUTO 36005KT 320V060 9999 OVC012/// 09/07 Q1022 TEMPO 0400 FG VV///

TAF TAF LFLS
Valid from the 20 at 03:00 until the 21 at 03:00 UTC


200200Z 2003/2103 VRB03KT 9999 BKN012
TEMPO 2003/2008 3000 BR OVC006
PROB40
TEMPO 2003/2008 0400 FG VV///
FM200900 36008KT 9999 BKN020
BECMG 2011/2013 CAVOK
BECMG 2017/2019 VRB02KT
PROB40
TEMPO 2100/2103 0400 FG VV///
ATIS : +33 4 76 65 55 89
No reported NOTAMs for that airfield.



MET'MAP, your aeronautical weather chart ! - Copyright ORBIFLY December 2007 - Disclaimer

ORBIFLY MET'MAP TEAM :

Programming & Development : Alexandra Zaïnal
Concept & Development : Baudouin d'Aumeries
Co-Development & Prog : Marc-Olivier Méhu
Technical & hardware support : Manuel Goepfert

Contact : metmap@orbifly.com




SOURCES & CREDITS :

   NOAA